sensor_id;sensor_type;location;lat;lon;timestamp;P1;durP1;ratioP1;P2;durP2;ratioP2
17151;SDS011;8691;50.828;4.700;2023-07-20T00:00:13;5.30;;;2.40;;
17151;SDS011;8691;50.828;4.700;2023-07-20T00:02:50;5.50;;;2.53;;
17151;SDS011;8691;50.828;4.700;2023-07-20T00:05:26;2.83;;;2.27;;
17151;SDS011;8691;50.828;4.700;2023-07-20T00:08:03;4.17;;;2.10;;
17151;SDS011;8691;50.828;4.700;2023-07-20T00:10:40;4.00;;;2.17;;
17151;SDS011;8691;50.828;4.700;2023-07-20T00:13:16;4.33;;;2.20;;
17151;SDS011;8691;50.828;4.700;2023-07-20T00:15:53;3.07;;;2.20;;
17151;SDS011;8691;50.828;4.700;2023-07-20T00:18:30;4.07;;;2.37;;
17151;SDS011;8691;50.828;4.700;2023-07-20T00:21:06;2.97;;;2.33;;
17151;SDS011;8691;50.828;4.700;2023-07-20T00:23:43;1.90;;;1.70;;
17151;SDS011;8691;50.828;4.700;2023-07-20T00:26:19;4.47;;;2.13;;
17151;SDS011;8691;50.828;4.700;2023-07-20T00:28:56;4.10;;;2.13;;
17151;SDS011;8691;50.828;4.700;2023-07-20T00:31:33;3.00;;;2.20;;
17151;SDS011;8691;50.828;4.700;2023-07-20T00:34:09;3.90;;;2.30;;
17151;SDS011;8691;50.828;4.700;2023-07-20T00:36:47;3.50;;;2.17;;
17151;SDS011;8691;50.828;4.700;2023-07-20T00:39:23;3.03;;;2.00;;
17151;SDS011;8691;50.828;4.700;2023-07-20T00:42:01;5.60;;;2.30;;
17151;SDS011;8691;50.828;4.700;2023-07-20T00:44:38;2.80;;;2.10;;
17151;SDS011;8691;50.828;4.700;2023-07-20T00:47:15;5.80;;;2.20;;
17151;SDS011;8691;50.828;4.700;2023-07-20T00:49:52;3.57;;;2.00;;
17151;SDS011;8691;50.828;4.700;2023-07-20T00:52:28;4.97;;;2.30;;
17151;SDS011;8691;50.828;4.700;2023-07-20T00:55:06;4.30;;;2.30;;
17151;SDS011;8691;50.828;4.700;2023-07-20T00:57:42;4.17;;;2.30;;
17151;SDS011;8691;50.828;4.700;2023-07-20T01:00:18;3.40;;;2.30;;
17151;SDS011;8691;50.828;4.700;2023-07-20T01:02:55;3.13;;;2.33;;
17151;SDS011;8691;50.828;4.700;2023-07-20T01:05:34;2.90;;;2.20;;
17151;SDS011;8691;50.828;4.700;2023-07-20T01:08:24;4.93;;;2.27;;
17151;SDS011;8691;50.828;4.700;2023-07-20T01:14:10;4.73;;;2.67;;
17151;SDS011;8691;50.828;4.700;2023-07-20T01:16:46;5.30;;;2.43;;
17151;SDS011;8691;50.828;4.700;2023-07-20T01:19:23;5.57;;;2.27;;
17151;SDS011;8691;50.828;4.700;2023-07-20T01:24:53;6.17;;;2.00;;
17151;SDS011;8691;50.828;4.700;2023-07-20T01:27:50;5.77;;;2.20;;
17151;SDS011;8691;50.828;4.700;2023-07-20T01:33:23;3.87;;;2.40;;
17151;SDS011;8691;50.828;4.700;2023-07-20T01:35:59;4.03;;;2.10;;
17151;SDS011;8691;50.828;4.700;2023-07-20T01:38:36;4.23;;;2.30;;
17151;SDS011;8691;50.828;4.700;2023-07-20T01:41:13;5.13;;;2.30;;
17151;SDS011;8691;50.828;4.700;2023-07-20T01:43:49;4.17;;;2.53;;
17151;SDS011;8691;50.828;4.700;2023-07-20T01:46:26;4.23;;;2.43;;
17151;SDS011;8691;50.828;4.700;2023-07-20T01:49:03;4.40;;;2.50;;
17151;SDS011;8691;50.828;4.700;2023-07-20T01:51:40;3.83;;;2.70;;
17151;SDS011;8691;50.828;4.700;2023-07-20T01:54:17;6.87;;;2.17;;
17151;SDS011;8691;50.828;4.700;2023-07-20T01:56:54;4.57;;;2.30;;
17151;SDS011;8691;50.828;4.700;2023-07-20T01:59:30;4.60;;;2.00;;
17151;SDS011;8691;50.828;4.700;2023-07-20T02:02:07;3.13;;;2.40;;
17151;SDS011;8691;50.828;4.700;2023-07-20T02:04:44;2.67;;;2.27;;
17151;SDS011;8691;50.828;4.700;2023-07-20T02:07:20;5.50;;;2.27;;
17151;SDS011;8691;50.828;4.700;2023-07-20T02:09:57;4.90;;;2.27;;
17151;SDS011;8691;50.828;4.700;2023-07-20T02:12:33;6.60;;;2.60;;
17151;SDS011;8691;50.828;4.700;2023-07-20T02:15:10;3.23;;;2.20;;
17151;SDS011;8691;50.828;4.700;2023-07-20T02:17:47;3.43;;;2.50;;
17151;SDS011;8691;50.828;4.700;2023-07-20T02:20:24;5.33;;;2.43;;
17151;SDS011;8691;50.828;4.700;2023-07-20T02:23:01;6.70;;;2.53;;
17151;SDS011;8691;50.828;4.700;2023-07-20T02:25:38;4.77;;;2.20;;
17151;SDS011;8691;50.828;4.700;2023-07-20T02:28:15;3.97;;;2.63;;
17151;SDS011;8691;50.828;4.700;2023-07-20T02:30:52;5.43;;;2.30;;
17151;SDS011;8691;50.828;4.700;2023-07-20T02:33:28;7.17;;;2.70;;
17151;SDS011;8691;50.828;4.700;2023-07-20T02:36:05;5.50;;;3.20;;
17151;SDS011;8691;50.828;4.700;2023-07-20T02:38:42;3.60;;;2.60;;
17151;SDS011;8691;50.828;4.700;2023-07-20T02:41:18;7.30;;;2.53;;
17151;SDS011;8691;50.828;4.700;2023-07-20T02:43:55;6.03;;;2.93;;
17151;SDS011;8691;50.828;4.700;2023-07-20T02:46:32;5.70;;;2.40;;
17151;SDS011;8691;50.828;4.700;2023-07-20T02:49:08;8.17;;;2.53;;
17151;SDS011;8691;50.828;4.700;2023-07-20T02:51:45;3.50;;;2.33;;
17151;SDS011;8691;50.828;4.700;2023-07-20T02:54:22;4.77;;;2.80;;
17151;SDS011;8691;50.828;4.700;2023-07-20T02:56:58;6.23;;;2.90;;
17151;SDS011;8691;50.828;4.700;2023-07-20T02:59:35;3.40;;;2.67;;
17151;SDS011;8691;50.828;4.700;2023-07-20T03:02:12;4.83;;;3.00;;
17151;SDS011;8691;50.828;4.700;2023-07-20T03:04:48;5.00;;;3.20;;
17151;SDS011;8691;50.828;4.700;2023-07-20T03:07:26;3.97;;;2.83;;
17151;SDS011;8691;50.828;4.700;2023-07-20T03:10:02;3.23;;;2.87;;
17151;SDS011;8691;50.828;4.700;2023-07-20T03:12:38;7.07;;;3.10;;
17151;SDS011;8691;50.828;4.700;2023-07-20T03:15:15;5.17;;;2.90;;
17151;SDS011;8691;50.828;4.700;2023-07-20T03:17:52;3.43;;;3.00;;
17151;SDS011;8691;50.828;4.700;2023-07-20T03:20:28;5.77;;;3.97;;
17151;SDS011;8691;50.828;4.700;2023-07-20T03:23:05;5.17;;;4.07;;
17151;SDS011;8691;50.828;4.700;2023-07-20T03:25:42;10.37;;;4.80;;
17151;SDS011;8691;50.828;4.700;2023-07-20T03:28:19;6.45;;;5.60;;
17151;SDS011;8691;50.828;4.700;2023-07-20T03:30:56;8.05;;;5.15;;
17151;SDS011;8691;50.828;4.700;2023-07-20T03:33:34;10.13;;;4.73;;
17151;SDS011;8691;50.828;4.700;2023-07-20T03:36:09;6.87;;;5.23;;
17151;SDS011;8691;50.828;4.700;2023-07-20T03:38:46;5.90;;;3.60;;
17151;SDS011;8691;50.828;4.700;2023-07-20T03:41:23;4.30;;;3.47;;
17151;SDS011;8691;50.828;4.700;2023-07-20T03:43:59;5.57;;;3.00;;
17151;SDS011;8691;50.828;4.700;2023-07-20T03:46:36;6.10;;;3.27;;
17151;SDS011;8691;50.828;4.700;2023-07-20T03:49:13;4.57;;;2.93;;
17151;SDS011;8691;50.828;4.700;2023-07-20T03:51:49;7.67;;;2.80;;
17151;SDS011;8691;50.828;4.700;2023-07-20T03:54:26;5.83;;;3.23;;
17151;SDS011;8691;50.828;4.700;2023-07-20T03:57:03;7.43;;;3.50;;
17151;SDS011;8691;50.828;4.700;2023-07-20T03:59:44;4.83;;;3.13;;
17151;SDS011;8691;50.828;4.700;2023-07-20T04:02:17;6.75;;;4.07;;
17151;SDS011;8691;50.828;4.700;2023-07-20T04:04:54;6.70;;;3.37;;
17151;SDS011;8691;50.828;4.700;2023-07-20T04:07:30;8.40;;;3.57;;
17151;SDS011;8691;50.828;4.700;2023-07-20T04:10:07;9.70;;;3.90;;
17151;SDS011;8691;50.828;4.700;2023-07-20T04:12:47;6.40;;;3.50;;
17151;SDS011;8691;50.828;4.700;2023-07-20T04:15:21;4.80;;;3.70;;
17151;SDS011;8691;50.828;4.700;2023-07-20T04:17:58;4.00;;;3.60;;
17151;SDS011;8691;50.828;4.700;2023-07-20T04:20:35;4.87;;;3.07;;
17151;SDS011;8691;50.828;4.700;2023-07-20T04:23:11;9.07;;;3.93;;
17151;SDS011;8691;50.828;4.700;2023-07-20T04:25:48;7.40;;;3.70;;
17151;SDS011;8691;50.828;4.700;2023-07-20T04:28:25;4.97;;;3.60;;
17151;SDS011;8691;50.828;4.700;2023-07-20T04:31:14;7.23;;;4.77;;
17151;SDS011;8691;50.828;4.700;2023-07-20T04:33:50;7.97;;;3.57;;
17151;SDS011;8691;50.828;4.700;2023-07-20T04:36:27;5.82;;;4.53;;
17151;SDS011;8691;50.828;4.700;2023-07-20T04:39:04;8.90;;;3.63;;
17151;SDS011;8691;50.828;4.700;2023-07-20T04:41:40;8.00;;;3.70;;
17151;SDS011;8691;50.828;4.700;2023-07-20T04:44:17;5.03;;;3.47;;
17151;SDS011;8691;50.828;4.700;2023-07-20T04:46:54;6.37;;;3.80;;
17151;SDS011;8691;50.828;4.700;2023-07-20T04:49:30;6.73;;;3.27;;
17151;SDS011;8691;50.828;4.700;2023-07-20T04:52:07;5.33;;;3.53;;
17151;SDS011;8691;50.828;4.700;2023-07-20T04:54:44;5.87;;;3.80;;
17151;SDS011;8691;50.828;4.700;2023-07-20T04:57:20;4.17;;;3.50;;
17151;SDS011;8691;50.828;4.700;2023-07-20T04:59:57;6.00;;;3.47;;
17151;SDS011;8691;50.828;4.700;2023-07-20T05:02:34;7.67;;;4.10;;
17151;SDS011;8691;50.828;4.700;2023-07-20T05:05:10;8.00;;;4.03;;
17151;SDS011;8691;50.828;4.700;2023-07-20T05:07:47;6.30;;;3.70;;
17151;SDS011;8691;50.828;4.700;2023-07-20T05:10:23;6.37;;;3.53;;
17151;SDS011;8691;50.828;4.700;2023-07-20T05:13:00;8.50;;;4.20;;
17151;SDS011;8691;50.828;4.700;2023-07-20T05:15:37;10.90;;;4.33;;
17151;SDS011;8691;50.828;4.700;2023-07-20T05:18:13;7.50;;;3.93;;
17151;SDS011;8691;50.828;4.700;2023-07-20T05:20:50;5.83;;;3.90;;
17151;SDS011;8691;50.828;4.700;2023-07-20T05:23:27;7.03;;;4.23;;
17151;SDS011;8691;50.828;4.700;2023-07-20T05:26:03;6.67;;;4.13;;
17151;SDS011;8691;50.828;4.700;2023-07-20T05:28:40;7.90;;;4.30;;
17151;SDS011;8691;50.828;4.700;2023-07-20T05:31:17;11.60;;;5.00;;
17151;SDS011;8691;50.828;4.700;2023-07-20T05:33:53;9.73;;;4.57;;
17151;SDS011;8691;50.828;4.700;2023-07-20T05:36:30;7.57;;;4.70;;
17151;SDS011;8691;50.828;4.700;2023-07-20T05:39:07;13.27;;;4.70;;
17151;SDS011;8691;50.828;4.700;2023-07-20T05:41:43;9.13;;;4.23;;
17151;SDS011;8691;50.828;4.700;2023-07-20T05:44:20;9.23;;;4.50;;
17151;SDS011;8691;50.828;4.700;2023-07-20T05:46:57;7.57;;;4.03;;
17151;SDS011;8691;50.828;4.700;2023-07-20T05:49:36;9.52;;;5.72;;
17151;SDS011;8691;50.828;4.700;2023-07-20T05:52:13;6.60;;;4.80;;
17151;SDS011;8691;50.828;4.700;2023-07-20T05:54:50;9.47;;;4.50;;
17151;SDS011;8691;50.828;4.700;2023-07-20T05:57:26;7.60;;;4.67;;
17151;SDS011;8691;50.828;4.700;2023-07-20T06:00:04;5.50;;;4.57;;
17151;SDS011;8691;50.828;4.700;2023-07-20T06:02:41;10.05;;;6.22;;
17151;SDS011;8691;50.828;4.700;2023-07-20T06:05:18;9.83;;;5.07;;
17151;SDS011;8691;50.828;4.700;2023-07-20T06:07:54;8.17;;;5.33;;
17151;SDS011;8691;50.828;4.700;2023-07-20T06:10:31;11.93;;;5.47;;
17151;SDS011;8691;50.828;4.700;2023-07-20T06:13:08;7.10;;;5.33;;
17151;SDS011;8691;50.828;4.700;2023-07-20T06:15:44;7.33;;;4.93;;
17151;SDS011;8691;50.828;4.700;2023-07-20T06:18:22;7.73;;;5.37;;
17151;SDS011;8691;50.828;4.700;2023-07-20T06:21:00;11.53;;;6.60;;
17151;SDS011;8691;50.828;4.700;2023-07-20T06:23:37;9.63;;;5.73;;
17151;SDS011;8691;50.828;4.700;2023-07-20T06:26:14;8.77;;;6.35;;
17151;SDS011;8691;50.828;4.700;2023-07-20T06:28:50;9.13;;;6.13;;
17151;SDS011;8691;50.828;4.700;2023-07-20T06:31:27;9.73;;;6.07;;
17151;SDS011;8691;50.828;4.700;2023-07-20T06:34:04;10.33;;;5.30;;
17151;SDS011;8691;50.828;4.700;2023-07-20T06:36:40;9.63;;;5.70;;
17151;SDS011;8691;50.828;4.700;2023-07-20T06:39:17;10.63;;;5.50;;
17151;SDS011;8691;50.828;4.700;2023-07-20T06:41:55;8.55;;;6.55;;
17151;SDS011;8691;50.828;4.700;2023-07-20T06:44:31;9.90;;;6.53;;
17151;SDS011;8691;50.828;4.700;2023-07-20T06:47:08;8.00;;;5.07;;
17151;SDS011;8691;50.828;4.700;2023-07-20T06:49:45;6.93;;;5.40;;
17151;SDS011;8691;50.828;4.700;2023-07-20T06:52:21;8.00;;;5.27;;
17151;SDS011;8691;50.828;4.700;2023-07-20T06:54:58;9.95;;;6.75;;
17151;SDS011;8691;50.828;4.700;2023-07-20T06:57:35;8.07;;;6.10;;
17151;SDS011;8691;50.828;4.700;2023-07-20T07:00:12;8.20;;;6.07;;
17151;SDS011;8691;50.828;4.700;2023-07-20T07:02:49;8.77;;;6.30;;
17151;SDS011;8691;50.828;4.700;2023-07-20T07:05:26;8.50;;;5.70;;
17151;SDS011;8691;50.828;4.700;2023-07-20T07:08:06;8.87;;;5.97;;
17151;SDS011;8691;50.828;4.700;2023-07-20T07:10:43;9.23;;;6.20;;
17151;SDS011;8691;50.828;4.700;2023-07-20T07:13:19;9.90;;;7.27;;
17151;SDS011;8691;50.828;4.700;2023-07-20T07:15:56;7.13;;;6.43;;
17151;SDS011;8691;50.828;4.700;2023-07-20T07:18:33;9.87;;;7.33;;
17151;SDS011;8691;50.828;4.700;2023-07-20T07:21:09;8.63;;;6.73;;
17151;SDS011;8691;50.828;4.700;2023-07-20T07:23:46;7.77;;;6.50;;
17151;SDS011;8691;50.828;4.700;2023-07-20T07:26:23;6.87;;;6.00;;
17151;SDS011;8691;50.828;4.700;2023-07-20T07:28:59;8.73;;;7.37;;
17151;SDS011;8691;50.828;4.700;2023-07-20T07:31:36;11.55;;;7.32;;
17151;SDS011;8691;50.828;4.700;2023-07-20T07:34:13;9.70;;;6.30;;
17151;SDS011;8691;50.828;4.700;2023-07-20T07:36:50;10.53;;;5.73;;
17151;SDS011;8691;50.828;4.700;2023-07-20T07:39:26;8.27;;;5.53;;
17151;SDS011;8691;50.828;4.700;2023-07-20T07:42:03;8.73;;;6.97;;
17151;SDS011;8691;50.828;4.700;2023-07-20T07:44:40;6.90;;;5.47;;
17151;SDS011;8691;50.828;4.700;2023-07-20T07:47:16;6.47;;;5.80;;
17151;SDS011;8691;50.828;4.700;2023-07-20T07:49:53;6.57;;;4.67;;
17151;SDS011;8691;50.828;4.700;2023-07-20T07:52:30;5.57;;;4.00;;
17151;SDS011;8691;50.828;4.700;2023-07-20T07:55:07;4.50;;;4.10;;
17151;SDS011;8691;50.828;4.700;2023-07-20T07:57:44;6.30;;;4.20;;
17151;SDS011;8691;50.828;4.700;2023-07-20T08:00:20;6.17;;;3.63;;
17151;SDS011;8691;50.828;4.700;2023-07-20T08:02:57;3.67;;;2.90;;
17151;SDS011;8691;50.828;4.700;2023-07-20T08:05:34;3.10;;;2.60;;
17151;SDS011;8691;50.828;4.700;2023-07-20T08:08:13;2.67;;;2.30;;
17151;SDS011;8691;50.828;4.700;2023-07-20T08:10:53;2.90;;;2.20;;
17151;SDS011;8691;50.828;4.700;2023-07-20T08:13:30;2.53;;;2.00;;
17151;SDS011;8691;50.828;4.700;2023-07-20T08:16:06;2.87;;;1.60;;
17151;SDS011;8691;50.828;4.700;2023-07-20T08:18:43;4.13;;;2.00;;
17151;SDS011;8691;50.828;4.700;2023-07-20T08:21:20;2.87;;;2.00;;
17151;SDS011;8691;50.828;4.700;2023-07-20T08:23:56;2.83;;;2.40;;
17151;SDS011;8691;50.828;4.700;2023-07-20T08:26:33;3.73;;;2.30;;
17151;SDS011;8691;50.828;4.700;2023-07-20T08:29:09;3.60;;;1.90;;
17151;SDS011;8691;50.828;4.700;2023-07-20T08:31:46;3.15;;;2.40;;
17151;SDS011;8691;50.828;4.700;2023-07-20T08:34:23;3.30;;;2.37;;
17151;SDS011;8691;50.828;4.700;2023-07-20T08:37:00;2.23;;;2.03;;
17151;SDS011;8691;50.828;4.700;2023-07-20T08:39:36;7.07;;;2.70;;
17151;SDS011;8691;50.828;4.700;2023-07-20T08:42:13;2.73;;;2.10;;
17151;SDS011;8691;50.828;4.700;2023-07-20T08:44:50;3.27;;;2.07;;
17151;SDS011;8691;50.828;4.700;2023-07-20T08:47:26;2.20;;;2.03;;
17151;SDS011;8691;50.828;4.700;2023-07-20T08:50:03;2.67;;;1.80;;
17151;SDS011;8691;50.828;4.700;2023-07-20T08:52:40;1.90;;;1.40;;
17151;SDS011;8691;50.828;4.700;2023-07-20T08:55:16;2.37;;;1.80;;
17151;SDS011;8691;50.828;4.700;2023-07-20T08:57:54;3.00;;;2.30;;
17151;SDS011;8691;50.828;4.700;2023-07-20T09:00:30;2.30;;;1.33;;
17151;SDS011;8691;50.828;4.700;2023-07-20T09:03:06;4.07;;;1.70;;
17151;SDS011;8691;50.828;4.700;2023-07-20T09:05:43;1.87;;;1.50;;
17151;SDS011;8691;50.828;4.700;2023-07-20T09:08:19;2.27;;;1.43;;
17151;SDS011;8691;50.828;4.700;2023-07-20T09:10:56;2.83;;;1.37;;
17151;SDS011;8691;50.828;4.700;2023-07-20T09:13:33;1.77;;;1.20;;
17151;SDS011;8691;50.828;4.700;2023-07-20T09:16:13;2.38;;;1.35;;
17151;SDS011;8691;50.828;4.700;2023-07-20T09:18:46;1.47;;;1.10;;
17151;SDS011;8691;50.828;4.700;2023-07-20T09:21:23;2.40;;;1.07;;
17151;SDS011;8691;50.828;4.700;2023-07-20T09:24:00;4.40;;;1.40;;
17151;SDS011;8691;50.828;4.700;2023-07-20T09:26:40;1.53;;;1.00;;
17151;SDS011;8691;50.828;4.700;2023-07-20T09:29:19;1.53;;;1.17;;
17151;SDS011;8691;50.828;4.700;2023-07-20T09:31:59;1.37;;;1.13;;
17151;SDS011;8691;50.828;4.700;2023-07-20T09:34:34;2.67;;;1.00;;
17151;SDS011;8691;50.828;4.700;2023-07-20T09:37:11;1.63;;;1.33;;
17151;SDS011;8691;50.828;4.700;2023-07-20T09:39:48;2.53;;;0.80;;
17151;SDS011;8691;50.828;4.700;2023-07-20T09:42:24;1.10;;;1.00;;
17151;SDS011;8691;50.828;4.700;2023-07-20T09:45:01;2.20;;;0.90;;
17151;SDS011;8691;50.828;4.700;2023-07-20T09:47:38;1.03;;;0.80;;
17151;SDS011;8691;50.828;4.700;2023-07-20T09:50:14;0.90;;;0.73;;
17151;SDS011;8691;50.828;4.700;2023-07-20T09:52:51;2.17;;;0.70;;
17151;SDS011;8691;50.828;4.700;2023-07-20T09:55:28;0.87;;;0.70;;
17151;SDS011;8691;50.828;4.700;2023-07-20T10:36:25;1.73;;;0.73;;
17151;SDS011;8691;50.828;4.700;2023-07-20T10:38:52;0.50;;;0.47;;
17151;SDS011;8691;50.828;4.700;2023-07-20T10:41:20;1.23;;;0.68;;
17151;SDS011;8691;50.828;4.700;2023-07-20T10:43:48;0.90;;;0.68;;
17151;SDS011;8691;50.828;4.700;2023-07-20T10:46:14;0.60;;;0.60;;
17151;SDS011;8691;50.828;4.700;2023-07-20T10:49:00;1.05;;;0.70;;
17151;SDS011;8691;50.828;4.700;2023-07-20T10:51:27;1.75;;;0.60;;
17151;SDS011;8691;50.828;4.700;2023-07-20T10:53:57;1.15;;;0.60;;
17151;SDS011;8691;50.828;4.700;2023-07-20T10:56:27;2.25;;;0.90;;
17151;SDS011;8691;50.828;4.700;2023-07-20T10:58:57;0.75;;;0.75;;
17151;SDS011;8691;50.828;4.700;2023-07-20T11:01:27;2.47;;;1.00;;
17151;SDS011;8691;50.828;4.700;2023-07-20T11:03:51;1.10;;;0.80;;
17151;SDS011;8691;50.828;4.700;2023-07-20T11:08:55;1.70;;;0.93;;
17151;SDS011;8691;50.828;4.700;2023-07-20T11:11:35;1.27;;;0.80;;
17151;SDS011;8691;50.828;4.700;2023-07-20T11:14:03;2.67;;;1.00;;
17151;SDS011;8691;50.828;4.700;2023-07-20T11:16:41;2.75;;;0.90;;
17151;SDS011;8691;50.828;4.700;2023-07-20T11:19:16;1.88;;;0.90;;
17151;SDS011;8691;50.828;4.700;2023-07-20T11:21:44;1.40;;;0.90;;
17151;SDS011;8691;50.828;4.700;2023-07-20T11:24:11;1.42;;;0.90;;
17151;SDS011;8691;50.828;4.700;2023-07-20T11:26:45;2.50;;;1.08;;
17151;SDS011;8691;50.828;4.700;2023-07-20T11:29:11;4.12;;;0.80;;
17151;SDS011;8691;50.828;4.700;2023-07-20T11:31:39;1.40;;;0.90;;
17151;SDS011;8691;50.828;4.700;2023-07-20T11:34:05;2.30;;;0.87;;
17151;SDS011;8691;50.828;4.700;2023-07-20T11:36:32;1.77;;;1.00;;
17151;SDS011;8691;50.828;4.700;2023-07-20T11:38:59;1.20;;;0.80;;
17151;SDS011;8691;50.828;4.700;2023-07-20T11:41:27;1.75;;;0.80;;
17151;SDS011;8691;50.828;4.700;2023-07-20T11:43:54;2.88;;;0.85;;
17151;SDS011;8691;50.828;4.700;2023-07-20T11:46:22;1.60;;;0.90;;
17151;SDS011;8691;50.828;4.700;2023-07-20T11:48:49;1.73;;;1.08;;
17151;SDS011;8691;50.828;4.700;2023-07-20T11:51:17;2.75;;;1.10;;
17151;SDS011;8691;50.828;4.700;2023-07-20T11:53:44;1.17;;;1.00;;
17151;SDS011;8691;50.828;4.700;2023-07-20T11:56:11;1.45;;;0.90;;
17151;SDS011;8691;50.828;4.700;2023-07-20T11:58:43;1.67;;;1.12;;
17151;SDS011;8691;50.828;4.700;2023-07-20T12:01:09;1.62;;;1.08;;
17151;SDS011;8691;50.828;4.700;2023-07-20T12:03:36;0.77;;;0.77;;
17151;SDS011;8691;50.828;4.700;2023-07-20T12:06:12;0.90;;;0.90;;
17151;SDS011;8691;50.828;4.700;2023-07-20T12:08:39;2.17;;;1.15;;
17151;SDS011;8691;50.828;4.700;2023-07-20T12:11:08;0.80;;;0.80;;
17151;SDS011;8691;50.828;4.700;2023-07-20T12:13:38;2.20;;;0.80;;
17151;SDS011;8691;50.828;4.700;2023-07-20T12:16:11;1.12;;;1.02;;
17151;SDS011;8691;50.828;4.700;2023-07-20T12:18:41;2.00;;;1.40;;
17151;SDS011;8691;50.828;4.700;2023-07-20T12:21:07;1.10;;;1.00;;
17151;SDS011;8691;50.828;4.700;2023-07-20T12:23:37;1.38;;;0.90;;
17151;SDS011;8691;50.828;4.700;2023-07-20T12:26:01;1.92;;;1.15;;
17151;SDS011;8691;50.828;4.700;2023-07-20T12:28:29;2.20;;;1.00;;
17151;SDS011;8691;50.828;4.700;2023-07-20T12:30:55;1.43;;;0.80;;
17151;SDS011;8691;50.828;4.700;2023-07-20T12:33:22;1.50;;;0.97;;
17151;SDS011;8691;50.828;4.700;2023-07-20T12:35:49;1.70;;;1.10;;
17151;SDS011;8691;50.828;4.700;2023-07-20T12:38:16;0.80;;;0.73;;
17151;SDS011;8691;50.828;4.700;2023-07-20T12:40:43;1.50;;;0.70;;
17151;SDS011;8691;50.828;4.700;2023-07-20T12:43:10;1.70;;;0.80;;
17151;SDS011;8691;50.828;4.700;2023-07-20T12:45:37;1.33;;;0.80;;
17151;SDS011;8691;50.828;4.700;2023-07-20T12:48:04;0.90;;;0.80;;
17151;SDS011;8691;50.828;4.700;2023-07-20T12:50:31;1.50;;;0.70;;
17151;SDS011;8691;50.828;4.700;2023-07-20T12:52:58;3.00;;;0.93;;
17151;SDS011;8691;50.828;4.700;2023-07-20T12:55:25;1.33;;;1.00;;
17151;SDS011;8691;50.828;4.700;2023-07-20T12:57:52;1.60;;;0.90;;
17151;SDS011;8691;50.828;4.700;2023-07-20T13:00:19;1.00;;;0.77;;
17151;SDS011;8691;50.828;4.700;2023-07-20T13:02:46;2.20;;;1.10;;
17151;SDS011;8691;50.828;4.700;2023-07-20T13:05:13;1.62;;;0.70;;
17151;SDS011;8691;50.828;4.700;2023-07-20T13:07:40;2.20;;;1.00;;
17151;SDS011;8691;50.828;4.700;2023-07-20T13:10:07;1.52;;;0.90;;
17151;SDS011;8691;50.828;4.700;2023-07-20T13:12:34;1.70;;;0.77;;
17151;SDS011;8691;50.828;4.700;2023-07-20T13:15:01;1.10;;;0.82;;
17151;SDS011;8691;50.828;4.700;2023-07-20T13:17:28;1.03;;;0.90;;
17151;SDS011;8691;50.828;4.700;2023-07-20T13:19:56;1.73;;;0.90;;
17151;SDS011;8691;50.828;4.700;2023-07-20T13:22:24;2.50;;;1.00;;
17151;SDS011;8691;50.828;4.700;2023-07-20T13:24:52;2.53;;;1.10;;
17151;SDS011;8691;50.828;4.700;2023-07-20T13:27:18;1.58;;;0.90;;
17151;SDS011;8691;50.828;4.700;2023-07-20T13:29:46;1.00;;;1.00;;
17151;SDS011;8691;50.828;4.700;2023-07-20T13:32:13;1.60;;;0.90;;
17151;SDS011;8691;50.828;4.700;2023-07-20T13:34:40;1.23;;;0.90;;
17151;SDS011;8691;50.828;4.700;2023-07-20T13:37:08;1.98;;;0.80;;
17151;SDS011;8691;50.828;4.700;2023-07-20T13:39:35;1.48;;;0.90;;
17151;SDS011;8691;50.828;4.700;2023-07-20T13:42:03;0.80;;;0.80;;
17151;SDS011;8691;50.828;4.700;2023-07-20T13:44:31;2.00;;;0.88;;
17151;SDS011;8691;50.828;4.700;2023-07-20T13:46:58;2.35;;;1.10;;
17151;SDS011;8691;50.828;4.700;2023-07-20T13:49:26;1.10;;;1.00;;
17151;SDS011;8691;50.828;4.700;2023-07-20T13:51:53;0.82;;;0.82;;
17151;SDS011;8691;50.828;4.700;2023-07-20T13:54:20;1.40;;;1.00;;
17151;SDS011;8691;50.828;4.700;2023-07-20T13:56:47;2.15;;;1.00;;
17151;SDS011;8691;50.828;4.700;2023-07-20T13:59:15;1.33;;;0.80;;
17151;SDS011;8691;50.828;4.700;2023-07-20T14:01:42;1.90;;;1.10;;
17151;SDS011;8691;50.828;4.700;2023-07-20T14:04:08;1.60;;;0.90;;
17151;SDS011;8691;50.828;4.700;2023-07-20T14:06:36;1.17;;;0.90;;
17151;SDS011;8691;50.828;4.700;2023-07-20T14:09:04;1.95;;;0.88;;
17151;SDS011;8691;50.828;4.700;2023-07-20T14:11:31;1.25;;;0.80;;
17151;SDS011;8691;50.828;4.700;2023-07-20T14:13:58;1.90;;;0.98;;
17151;SDS011;8691;50.828;4.700;2023-07-20T14:16:25;1.25;;;0.90;;
17151;SDS011;8691;50.828;4.700;2023-07-20T14:18:53;1.20;;;1.03;;
17151;SDS011;8691;50.828;4.700;2023-07-20T14:21:20;1.20;;;1.03;;
17151;SDS011;8691;50.828;4.700;2023-07-20T14:23:47;2.37;;;1.00;;
17151;SDS011;8691;50.828;4.700;2023-07-20T14:26:13;2.90;;;1.23;;
17151;SDS011;8691;50.828;4.700;2023-07-20T14:28:40;1.80;;;1.02;;
17151;SDS011;8691;50.828;4.700;2023-07-20T14:31:07;1.23;;;1.12;;
17151;SDS011;8691;50.828;4.700;2023-07-20T14:33:35;1.10;;;1.00;;
17151;SDS011;8691;50.828;4.700;2023-07-20T14:36:02;1.20;;;1.10;;
17151;SDS011;8691;50.828;4.700;2023-07-20T14:38:28;1.75;;;1.00;;
17151;SDS011;8691;50.828;4.700;2023-07-20T14:40:56;1.77;;;0.70;;
17151;SDS011;8691;50.828;4.700;2023-07-20T14:43:23;1.60;;;0.90;;
17151;SDS011;8691;50.828;4.700;2023-07-20T14:45:51;1.20;;;1.00;;
17151;SDS011;8691;50.828;4.700;2023-07-20T14:48:17;1.87;;;1.10;;
17151;SDS011;8691;50.828;4.700;2023-07-20T14:50:44;0.90;;;0.90;;
17151;SDS011;8691;50.828;4.700;2023-07-20T14:53:12;1.02;;;0.90;;
17151;SDS011;8691;50.828;4.700;2023-07-20T14:55:38;1.67;;;1.00;;
17151;SDS011;8691;50.828;4.700;2023-07-20T14:58:05;2.10;;;0.90;;
17151;SDS011;8691;50.828;4.700;2023-07-20T15:00:31;2.23;;;1.07;;
17151;SDS011;8691;50.828;4.700;2023-07-20T15:02:58;1.73;;;0.93;;
17151;SDS011;8691;50.828;4.700;2023-07-20T15:05:25;1.38;;;0.98;;
17151;SDS011;8691;50.828;4.700;2023-07-20T15:07:55;6.20;;;1.90;;
17151;SDS011;8691;50.828;4.700;2023-07-20T15:10:23;1.00;;;0.88;;
17151;SDS011;8691;50.828;4.700;2023-07-20T15:12:50;1.05;;;0.90;;
17151;SDS011;8691;50.828;4.700;2023-07-20T15:15:17;1.38;;;0.88;;
17151;SDS011;8691;50.828;4.700;2023-07-20T15:17:45;1.02;;;0.93;;
17151;SDS011;8691;50.828;4.700;2023-07-20T15:20:13;2.80;;;1.00;;
17151;SDS011;8691;50.828;4.700;2023-07-20T15:22:39;2.20;;;1.08;;
17151;SDS011;8691;50.828;4.700;2023-07-20T15:25:06;1.77;;;1.25;;
17151;SDS011;8691;50.828;4.700;2023-07-20T15:27:33;1.20;;;0.85;;
17151;SDS011;8691;50.828;4.700;2023-07-20T15:30:00;1.98;;;0.90;;
17151;SDS011;8691;50.828;4.700;2023-07-20T15:32:27;1.27;;;1.05;;
17151;SDS011;8691;50.828;4.700;2023-07-20T15:34:55;1.83;;;1.00;;
17151;SDS011;8691;50.828;4.700;2023-07-20T15:37:22;1.38;;;0.80;;
17151;SDS011;8691;50.828;4.700;2023-07-20T15:39:49;0.90;;;0.90;;
17151;SDS011;8691;50.828;4.700;2023-07-20T15:42:16;1.10;;;0.90;;
17151;SDS011;8691;50.828;4.700;2023-07-20T15:44:43;1.45;;;1.02;;
17151;SDS011;8691;50.828;4.700;2023-07-20T15:47:09;1.20;;;1.00;;
17151;SDS011;8691;50.828;4.700;2023-07-20T15:49:37;2.42;;;1.30;;
17151;SDS011;8691;50.828;4.700;2023-07-20T15:52:04;2.37;;;1.10;;
17151;SDS011;8691;50.828;4.700;2023-07-20T15:54:31;1.40;;;1.00;;
17151;SDS011;8691;50.828;4.700;2023-07-20T15:56:58;1.88;;;1.17;;
17151;SDS011;8691;50.828;4.700;2023-07-20T15:59:25;1.20;;;1.10;;
17151;SDS011;8691;50.828;4.700;2023-07-20T16:01:53;1.00;;;0.98;;
17151;SDS011;8691;50.828;4.700;2023-07-20T16:04:20;2.55;;;1.10;;
17151;SDS011;8691;50.828;4.700;2023-07-20T16:06:47;1.63;;;0.93;;
17151;SDS011;8691;50.828;4.700;2023-07-20T16:09:13;0.80;;;0.80;;
17151;SDS011;8691;50.828;4.700;2023-07-20T16:11:40;1.00;;;1.00;;
17151;SDS011;8691;50.828;4.700;2023-07-20T16:14:07;1.20;;;1.10;;
17151;SDS011;8691;50.828;4.700;2023-07-20T16:16:36;3.17;;;1.20;;
17151;SDS011;8691;50.828;4.700;2023-07-20T16:19:02;1.87;;;1.23;;
17151;SDS011;8691;50.828;4.700;2023-07-20T16:21:29;2.40;;;1.20;;
17151;SDS011;8691;50.828;4.700;2023-07-20T16:23:56;1.70;;;0.90;;
17151;SDS011;8691;50.828;4.700;2023-07-20T16:26:23;3.23;;;1.13;;